createdAt,value
2023-04-26T00:00:11.943Z,100414.00
2023-04-26T00:03:08.078Z,100419.80
2023-04-26T00:05:37.748Z,100419.20
2023-04-26T00:08:08.140Z,100424.20
2023-04-26T00:10:36.049Z,100423.60
2023-04-26T00:13:04.435Z,100422.80
2023-04-26T00:15:37.021Z,100421.60
2023-04-26T00:18:05.525Z,100418.40
2023-04-26T00:20:34.154Z,100423.20
2023-04-26T00:23:06.304Z,100421.40
2023-04-26T00:25:34.329Z,100424.00
2023-04-26T00:28:05.157Z,100427.00
2023-04-26T00:30:37.811Z,100423.00
2023-04-26T00:33:08.952Z,100430.60
2023-04-26T00:35:41.357Z,100429.40
2023-04-26T00:38:09.508Z,100427.80
2023-04-26T00:40:37.427Z,100426.60
2023-04-26T00:43:07.018Z,100426.40
2023-04-26T00:45:38.264Z,100426.80
2023-04-26T00:48:08.725Z,100424.40
2023-04-26T00:50:37.678Z,100427.40
2023-04-26T00:53:08.509Z,100424.80
2023-04-26T00:55:44.182Z,100431.80
2023-04-26T00:58:12.917Z,100428.40
2023-04-26T01:00:40.670Z,100431.80
2023-04-26T01:03:11.430Z,100421.00
2023-04-26T01:05:41.377Z,100418.00
2023-04-26T01:08:09.896Z,100426.00
2023-04-26T01:10:40.105Z,100419.00
2023-04-26T01:13:08.793Z,100419.20
2023-04-26T01:15:37.569Z,100423.60
2023-04-26T01:18:06.454Z,100423.80
2023-04-26T01:20:36.714Z,100426.20
2023-04-26T01:23:06.478Z,100427.60
2023-04-26T01:25:35.781Z,100423.60
2023-04-26T01:28:06.356Z,100434.60
2023-04-26T01:30:41.466Z,100427.40
2023-04-26T01:33:11.144Z,100422.80
2023-04-26T01:35:39.116Z,100432.80
2023-04-26T01:38:08.861Z,100429.40
2023-04-26T01:40:37.276Z,100431.60
2023-04-26T01:43:05.294Z,100422.00
2023-04-26T01:45:34.690Z,100423.60
2023-04-26T01:48:03.012Z,100420.60
2023-04-26T01:50:34.472Z,100426.20
2023-04-26T01:53:04.979Z,100430.00
2023-04-26T01:55:34.345Z,100431.40
2023-04-26T01:58:03.056Z,100431.80
2023-04-26T02:00:31.403Z,100428.00
2023-04-26T02:02:59.292Z,100434.20
2023-04-26T02:05:28.346Z,100439.20
2023-04-26T02:07:56.702Z,100436.40
2023-04-26T02:10:25.915Z,100434.00
2023-04-26T02:12:53.841Z,100428.20
2023-04-26T02:15:22.236Z,100427.20
2023-04-26T02:17:53.858Z,100430.60
2023-04-26T02:20:21.958Z,100438.40
2023-04-26T02:22:49.807Z,100435.20
2023-04-26T02:25:17.725Z,100441.40
2023-04-26T02:27:47.213Z,100439.00
2023-04-26T02:30:15.188Z,100433.80
2023-04-26T02:32:43.216Z,100433.80
2023-04-26T02:35:12.469Z,100440.80
2023-04-26T02:37:41.855Z,100437.00
2023-04-26T02:40:13.984Z,100443.20
2023-04-26T02:42:52.437Z,100445.00
2023-04-26T02:45:21.881Z,100444.40
2023-04-26T02:47:51.337Z,100441.80
2023-04-26T02:50:19.489Z,100441.00
2023-04-26T02:52:47.677Z,100439.40
2023-04-26T02:55:15.696Z,100445.00
2023-04-26T02:57:43.577Z,100444.40
2023-04-26T03:00:14.636Z,100440.40
2023-04-26T03:02:43.797Z,100445.00
2023-04-26T03:05:14.674Z,100446.80
2023-04-26T03:07:46.493Z,100451.20
2023-04-26T03:10:14.715Z,100448.00
2023-04-26T03:12:42.640Z,100448.40
2023-04-26T03:15:14.216Z,100446.80
2023-04-26T03:17:43.404Z,100451.40
2023-04-26T03:20:12.842Z,100447.40
2023-04-26T03:22:40.950Z,100452.20
2023-04-26T03:25:11.737Z,100455.60
2023-04-26T03:27:40.104Z,100454.40
2023-04-26T03:30:08.986Z,100454.20
2023-04-26T03:32:36.923Z,100451.40
2023-04-26T03:35:05.546Z,100449.20
2023-04-26T03:37:33.342Z,100451.40
2023-04-26T03:40:02.296Z,100451.80
2023-04-26T03:42:30.892Z,100445.00
2023-04-26T03:44:58.982Z,100445.40
2023-04-26T03:47:27.172Z,100443.80
2023-04-26T03:49:55.428Z,100441.60
2023-04-26T03:52:25.358Z,100444.00
2023-04-26T03:54:53.541Z,100444.40
2023-04-26T03:57:21.743Z,100446.80
2023-04-26T03:59:50.309Z,100448.40
2023-04-26T04:02:20.572Z,100446.00
2023-04-26T04:04:49.514Z,100447.40
2023-04-26T04:07:19.142Z,100443.20
2023-04-26T04:09:47.236Z,100444.40
2023-04-26T04:12:15.338Z,100445.40
2023-04-26T04:14:43.533Z,100446.60
2023-04-26T04:17:12.015Z,100443.80
2023-04-26T04:19:39.887Z,100447.40
2023-04-26T04:22:08.403Z,100441.60
2023-04-26T04:24:36.248Z,100453.20
2023-04-26T04:27:05.420Z,100454.00
2023-04-26T04:29:35.090Z,100449.60
2023-04-26T04:32:02.930Z,100449.80
2023-04-26T04:34:36.394Z,100457.80
2023-04-26T04:37:04.498Z,100455.80
2023-04-26T04:39:32.441Z,100458.20
2023-04-26T04:42:00.826Z,100456.00
2023-04-26T04:44:31.176Z,100458.00
2023-04-26T04:46:59.946Z,100463.40
2023-04-26T04:49:32.218Z,100461.00
2023-04-26T04:52:00.398Z,100465.00
2023-04-26T04:54:28.591Z,100469.40
2023-04-26T04:56:57.604Z,100469.20
2023-04-26T04:59:28.113Z,100470.00
2023-04-26T05:01:56.701Z,100473.20
2023-04-26T05:04:25.543Z,100468.40
2023-04-26T05:06:53.604Z,100472.40
2023-04-26T05:09:21.659Z,100474.60
2023-04-26T05:11:49.555Z,100478.20
2023-04-26T05:14:17.459Z,100483.80
2023-04-26T05:16:45.876Z,100485.20
2023-04-26T05:19:14.918Z,100489.80
2023-04-26T05:21:42.865Z,100489.80
2023-04-26T05:24:11.098Z,100496.40
2023-04-26T05:26:39.199Z,100500.60
2023-04-26T05:29:07.776Z,100498.60
2023-04-26T05:31:35.953Z,100501.00
2023-04-26T05:34:04.364Z,100499.80
2023-04-26T05:36:32.838Z,100496.60
2023-04-26T05:39:00.608Z,100500.80
2023-04-26T05:41:28.724Z,100498.80
2023-04-26T05:43:57.205Z,100504.60
2023-04-26T05:46:25.680Z,100505.60
2023-04-26T05:48:53.777Z,100508.20
2023-04-26T05:51:24.513Z,100512.80
2023-04-26T05:53:52.560Z,100506.00
2023-04-26T05:56:21.574Z,100508.80
2023-04-26T05:58:50.834Z,100508.40
2023-04-26T06:01:19.019Z,100517.60
2023-04-26T06:03:47.648Z,100516.20
2023-04-26T06:06:16.152Z,100518.80
2023-04-26T06:08:46.545Z,100521.60
2023-04-26T06:11:14.670Z,100520.20
2023-04-26T06:13:42.440Z,100514.40
2023-04-26T06:16:12.797Z,100520.00
2023-04-26T06:18:40.964Z,100529.20
2023-04-26T06:21:09.924Z,100528.40
2023-04-26T06:23:37.799Z,100533.40
2023-04-26T06:26:05.868Z,100535.80
2023-04-26T06:28:33.680Z,100535.40
2023-04-26T06:31:01.834Z,100530.80
2023-04-26T06:33:29.801Z,100534.20
2023-04-26T06:35:57.894Z,100539.20
2023-04-26T06:38:28.550Z,100542.20
2023-04-26T06:40:56.958Z,100541.20
2023-04-26T06:43:27.897Z,100540.00
2023-04-26T06:45:56.603Z,100549.20
2023-04-26T06:48:26.090Z,100552.20
2023-04-26T06:50:55.081Z,100556.00
2023-04-26T06:53:23.500Z,100555.80
2023-04-26T06:55:53.416Z,100565.00
2023-04-26T06:58:22.037Z,100567.20
2023-04-26T07:00:51.107Z,100569.60
2023-04-26T07:03:19.827Z,100573.00
2023-04-26T07:05:49.769Z,100563.40
2023-04-26T07:08:19.739Z,100573.20
2023-04-26T07:10:48.945Z,100571.40
2023-04-26T07:13:17.052Z,100572.80
2023-04-26T07:15:46.878Z,100575.40
2023-04-26T07:18:15.104Z,100580.00
2023-04-26T07:20:42.909Z,100587.00
2023-04-26T07:23:10.713Z,100590.60
2023-04-26T07:25:39.741Z,100580.80
2023-04-26T07:28:08.802Z,100586.60
2023-04-26T07:30:36.704Z,100589.00
2023-04-26T07:33:05.256Z,100587.00
2023-04-26T07:35:38.315Z,100600.40
2023-04-26T07:38:07.574Z,100587.60
2023-04-26T07:40:37.158Z,100593.40
2023-04-26T07:43:05.586Z,100590.40
2023-04-26T07:45:36.876Z,100597.00
2023-04-26T07:48:05.221Z,100600.80
2023-04-26T07:50:33.606Z,100606.00
2023-04-26T07:53:01.864Z,100610.40
2023-04-26T07:55:30.228Z,100610.40
2023-04-26T07:57:58.219Z,100611.00
2023-04-26T08:00:27.598Z,100613.40
2023-04-26T08:02:56.095Z,100607.60
2023-04-26T08:05:26.174Z,100610.00
2023-04-26T08:07:55.987Z,100608.80
2023-04-26T08:10:24.549Z,100608.80
2023-04-26T08:12:53.685Z,100609.60
2023-04-26T08:15:24.392Z,100615.20
2023-04-26T08:17:53.487Z,100623.40
2023-04-26T08:20:23.007Z,100628.20
2023-04-26T08:22:57.628Z,100629.20
2023-04-26T08:25:27.181Z,100629.60
2023-04-26T08:27:55.959Z,100628.60
2023-04-26T08:30:27.124Z,100635.60
2023-04-26T08:32:55.170Z,100643.00
2023-04-26T08:35:23.908Z,100645.00
2023-04-26T08:37:52.102Z,100648.60
2023-04-26T08:40:34.490Z,100653.40
2023-04-26T08:43:02.675Z,100653.80
2023-04-26T08:45:35.605Z,100649.20
2023-04-26T08:48:14.937Z,100652.20
2023-04-26T08:50:50.288Z,100657.80
2023-04-26T08:53:22.560Z,100654.20
2023-04-26T08:55:54.362Z,100661.60
2023-04-26T08:58:23.771Z,100664.80
2023-04-26T09:00:55.444Z,100671.80
2023-04-26T09:03:26.811Z,100666.40
2023-04-26T09:05:56.381Z,100675.40
2023-04-26T09:08:27.072Z,100673.40
2023-04-26T09:11:00.358Z,100681.00
2023-04-26T09:13:33.558Z,100678.00
2023-04-26T09:16:03.519Z,100680.60
2023-04-26T09:18:34.443Z,100672.40
2023-04-26T09:21:10.368Z,100669.40
2023-04-26T09:23:58.885Z,100668.00
2023-04-26T09:26:29.117Z,100661.60
2023-04-26T09:29:17.941Z,100661.80
2023-04-26T09:31:50.736Z,100665.40
2023-04-26T09:34:22.715Z,100669.20
2023-04-26T09:36:58.210Z,100667.00
2023-04-26T09:39:42.367Z,100670.40
2023-04-26T09:42:11.432Z,100669.60
2023-04-26T09:44:39.420Z,100669.80
2023-04-26T09:47:12.384Z,100674.00
2023-04-26T09:49:52.033Z,100676.20
2023-04-26T09:52:22.194Z,100676.80
2023-04-26T09:54:53.382Z,100676.00
2023-04-26T09:57:24.110Z,100682.00
2023-04-26T09:59:55.750Z,100682.00
2023-04-26T10:02:27.857Z,100696.60
2023-04-26T10:05:00.258Z,100686.80
2023-04-26T10:07:31.065Z,100686.00
2023-04-26T10:10:04.452Z,100690.00
2023-04-26T10:12:33.797Z,100693.80
2023-04-26T10:15:04.225Z,100686.20
2023-04-26T10:17:32.760Z,100682.80
2023-04-26T10:20:05.987Z,100678.60
2023-04-26T10:22:44.606Z,100676.80
2023-04-26T10:25:13.839Z,100674.00
2023-04-26T10:27:53.007Z,100682.00
2023-04-26T10:30:26.520Z,100677.40
2023-04-26T10:33:02.684Z,100675.80
2023-04-26T10:35:31.709Z,100677.20
2023-04-26T10:38:02.242Z,100678.80
2023-04-26T10:40:41.823Z,100679.00
2023-04-26T10:43:15.479Z,100675.60
2023-04-26T10:45:48.304Z,100678.40
2023-04-26T10:48:31.506Z,100677.80
2023-04-26T10:51:15.135Z,100674.40
2023-04-26T10:53:49.367Z,100674.80
2023-04-26T10:56:41.263Z,100677.40
2023-04-26T10:59:36.120Z,100667.00
2023-04-26T11:02:11.456Z,100685.40
2023-04-26T11:04:55.613Z,100668.80
2023-04-26T11:08:09.557Z,100669.40
2023-04-26T11:10:39.817Z,100678.00
2023-04-26T11:13:08.458Z,100670.40
2023-04-26T11:15:36.804Z,100667.00
2023-04-26T11:18:06.882Z,100668.00
2023-04-26T11:20:38.062Z,100665.40
2023-04-26T11:23:09.195Z,100663.80
2023-04-26T11:25:40.283Z,100661.40
2023-04-26T11:28:08.539Z,100661.20
2023-04-26T11:30:36.945Z,100659.60
2023-04-26T11:33:06.648Z,100660.40
2023-04-26T11:35:36.522Z,100665.40
2023-04-26T11:38:05.796Z,100670.80
2023-04-26T11:40:36.683Z,100674.40
2023-04-26T11:43:06.396Z,100673.80
2023-04-26T11:45:37.181Z,100684.40
2023-04-26T11:48:10.712Z,100688.00
2023-04-26T11:50:40.602Z,100694.40
2023-04-26T11:53:11.733Z,100706.00
2023-04-26T11:55:39.895Z,100712.20
2023-04-26T11:58:13.755Z,100716.00
2023-04-26T12:00:59.756Z,100710.40
2023-04-26T12:03:38.203Z,100686.40
2023-04-26T12:06:07.053Z,100673.40
2023-04-26T12:08:36.411Z,100673.80
2023-04-26T12:11:04.699Z,100671.80
2023-04-26T12:13:34.367Z,100673.20
2023-04-26T12:16:22.293Z,100679.00
2023-04-26T12:18:58.898Z,100689.20
2023-04-26T12:21:30.854Z,100708.80
2023-04-26T12:24:00.526Z,100715.00
2023-04-26T12:26:45.182Z,100716.80
2023-04-26T12:29:13.910Z,100715.60
2023-04-26T12:31:42.073Z,100709.40
2023-04-26T12:34:12.513Z,100704.40
2023-04-26T12:36:44.469Z,100688.40
2023-04-26T12:39:14.576Z,100683.20
2023-04-26T12:41:43.737Z,100680.20
2023-04-26T12:44:12.594Z,100683.20
2023-04-26T12:46:41.916Z,100684.20
2023-04-26T12:49:10.996Z,100678.40
2023-04-26T12:51:39.303Z,100680.20
2023-04-26T12:54:07.492Z,100674.20
2023-04-26T12:56:40.788Z,100676.20
2023-04-26T12:59:11.959Z,100664.00
2023-04-26T13:01:39.936Z,100666.40
2023-04-26T13:04:12.387Z,100665.60
2023-04-26T13:06:40.841Z,100668.20
2023-04-26T13:09:09.355Z,100669.60
2023-04-26T13:11:38.592Z,100678.40
2023-04-26T13:14:09.983Z,100684.40
2023-04-26T13:16:42.834Z,100693.00
2023-04-26T13:19:11.747Z,100704.20
2023-04-26T13:21:42.255Z,100704.40
2023-04-26T13:24:12.711Z,100687.80
2023-04-26T13:26:41.385Z,100695.00
2023-04-26T13:29:09.642Z,100694.00
2023-04-26T13:31:37.533Z,100697.40
2023-04-26T13:34:06.007Z,100702.80
2023-04-26T13:36:34.274Z,100700.20
2023-04-26T13:39:04.933Z,100695.40
2023-04-26T13:41:36.239Z,100696.40
2023-04-26T13:44:06.000Z,100692.60
2023-04-26T13:46:35.675Z,100685.20
2023-04-26T13:49:05.535Z,100684.60
2023-04-26T13:51:34.859Z,100685.60
2023-04-26T13:54:06.092Z,100693.00
2023-04-26T13:56:34.560Z,100697.40
2023-04-26T13:59:05.495Z,100692.20
2023-04-26T14:01:36.981Z,100690.40
2023-04-26T14:04:11.393Z,100700.40
2023-04-26T14:06:39.476Z,100704.60
2023-04-26T14:09:09.757Z,100710.00
2023-04-26T14:11:37.790Z,100707.40
2023-04-26T14:14:06.929Z,100705.00
2023-04-26T14:16:35.462Z,100709.60
2023-04-26T14:19:04.374Z,100706.20
2023-04-26T14:21:32.427Z,100704.00
2023-04-26T14:24:00.292Z,100692.60
2023-04-26T14:26:28.179Z,100693.60
2023-04-26T14:28:57.146Z,100702.00
2023-04-26T14:31:26.344Z,100710.80
2023-04-26T14:33:54.977Z,100706.60
2023-04-26T14:36:23.018Z,100694.80
2023-04-26T14:38:50.969Z,100711.00
2023-04-26T14:41:21.638Z,100698.40
2023-04-26T14:43:51.308Z,100691.40
2023-04-26T14:46:20.593Z,100687.20
2023-04-26T14:48:48.520Z,100686.40
2023-04-26T14:51:16.358Z,100683.20
2023-04-26T14:53:45.359Z,100684.00
2023-04-26T14:56:13.679Z,100683.40
2023-04-26T14:58:42.004Z,100682.20
2023-04-26T15:01:10.661Z,100674.80
2023-04-26T15:03:39.092Z,100672.20
2023-04-26T15:06:10.025Z,100662.40
2023-04-26T15:08:38.861Z,100664.40
2023-04-26T15:11:06.586Z,100661.80
2023-04-26T15:13:39.639Z,100668.80
2023-04-26T15:16:09.859Z,100671.60
2023-04-26T15:18:38.176Z,100675.80
2023-04-26T15:21:09.355Z,100680.20
2023-04-26T15:23:37.159Z,100678.20
2023-04-26T15:26:05.189Z,100674.00
2023-04-26T15:28:35.908Z,100677.40
2023-04-26T15:31:08.019Z,100674.20
2023-04-26T15:33:36.467Z,100670.60
2023-04-26T15:36:05.558Z,100673.00
2023-04-26T15:38:35.342Z,100678.00
2023-04-26T15:41:07.219Z,100674.80
2023-04-26T15:43:35.129Z,100672.80
2023-04-26T15:46:05.086Z,100668.20
2023-04-26T15:48:33.352Z,100667.80
2023-04-26T15:51:06.676Z,100667.00
2023-04-26T15:53:43.110Z,100673.80
2023-04-26T15:56:20.814Z,100678.00
2023-04-26T15:58:49.517Z,100673.00
2023-04-26T16:01:18.872Z,100680.20
2023-04-26T16:03:47.789Z,100684.80
2023-04-26T16:06:16.867Z,100674.60
2023-04-26T16:08:45.386Z,100699.40
2023-04-26T16:11:14.722Z,100693.60
2023-04-26T16:13:42.586Z,100682.00
2023-04-26T16:16:11.882Z,100680.00
2023-04-26T16:18:43.728Z,100677.80
2023-04-26T16:21:13.204Z,100681.60
2023-04-26T16:23:42.491Z,100680.00
2023-04-26T16:26:11.012Z,100681.80
2023-04-26T16:28:39.094Z,100695.40
2023-04-26T16:31:09.079Z,100695.60
2023-04-26T16:33:39.178Z,100697.60
2023-04-26T16:36:09.726Z,100705.00
2023-04-26T16:38:39.994Z,100705.60
2023-04-26T16:41:11.424Z,100709.20
2023-04-26T16:43:47.393Z,100712.40
2023-04-26T16:46:18.101Z,100711.00
2023-04-26T16:48:47.367Z,100713.00
2023-04-26T16:51:15.181Z,100716.80
2023-04-26T16:53:44.134Z,100715.20
2023-04-26T16:56:14.806Z,100717.60
2023-04-26T16:58:42.709Z,100716.40
2023-04-26T17:01:11.091Z,100719.20
2023-04-26T17:03:39.237Z,100718.60
2023-04-26T17:06:13.274Z,100717.40
2023-04-26T17:08:42.358Z,100714.40
2023-04-26T17:11:15.728Z,100720.80
2023-04-26T17:13:44.427Z,100724.80
2023-04-26T17:16:12.949Z,100728.80
2023-04-26T17:18:41.926Z,100730.80
2023-04-26T17:21:10.879Z,100731.60
2023-04-26T17:23:38.657Z,100733.40
2023-04-26T17:26:08.938Z,100737.20
2023-04-26T17:28:39.058Z,100736.60
2023-04-26T17:31:06.911Z,100738.40
2023-04-26T17:33:37.031Z,100737.40
2023-04-26T17:36:05.457Z,100738.00
2023-04-26T17:38:33.523Z,100732.60
2023-04-26T17:41:01.994Z,100735.20
2023-04-26T17:43:30.333Z,100740.00
2023-04-26T17:45:58.334Z,100742.00
2023-04-26T17:48:26.425Z,100743.60
2023-04-26T17:50:54.744Z,100747.20
2023-04-26T17:53:22.893Z,100747.80
2023-04-26T17:55:53.388Z,100747.00
2023-04-26T17:58:21.724Z,100750.20
2023-04-26T18:00:50.961Z,100752.20
2023-04-26T18:03:20.556Z,100754.80
2023-04-26T18:05:48.926Z,100759.60
2023-04-26T18:08:19.243Z,100752.40
2023-04-26T18:10:48.584Z,100754.80
2023-04-26T18:13:18.875Z,100757.40
2023-04-26T18:15:47.586Z,100754.60
2023-04-26T18:18:15.492Z,100751.40
2023-04-26T18:20:43.916Z,100747.00
2023-04-26T18:23:12.441Z,100745.60
2023-04-26T18:25:40.883Z,100747.60
2023-04-26T18:28:16.514Z,100757.20
2023-04-26T18:30:44.601Z,100755.20
2023-04-26T18:33:15.460Z,100755.40
2023-04-26T18:35:44.240Z,100749.20
2023-04-26T18:38:13.203Z,100752.20
2023-04-26T18:40:46.408Z,100754.80
2023-04-26T18:43:22.067Z,100754.20
2023-04-26T18:45:51.643Z,100758.40
2023-04-26T18:48:20.881Z,100757.20
2023-04-26T18:50:54.494Z,100760.20
2023-04-26T18:53:23.727Z,100759.40
2023-04-26T18:55:54.430Z,100758.00
2023-04-26T18:58:22.771Z,100761.80
2023-04-26T19:00:54.319Z,100766.40
2023-04-26T19:03:25.628Z,100765.00
2023-04-26T19:05:55.726Z,100761.60
2023-04-26T19:08:25.734Z,100766.80
2023-04-26T19:10:53.702Z,100763.40
2023-04-26T19:13:24.236Z,100761.80
2023-04-26T19:15:52.057Z,100759.60
2023-04-26T19:18:22.395Z,100761.80
2023-04-26T19:20:51.549Z,100764.80
2023-04-26T19:23:22.282Z,100766.00
2023-04-26T19:25:50.227Z,100765.20
2023-04-26T19:28:18.024Z,100769.60
2023-04-26T19:30:48.370Z,100764.40
2023-04-26T19:33:17.122Z,100765.80
2023-04-26T19:35:46.470Z,100766.40
2023-04-26T19:38:14.382Z,100767.80
2023-04-26T19:40:46.443Z,100767.80
2023-04-26T19:43:14.746Z,100765.20
2023-04-26T19:45:47.908Z,100769.40
2023-04-26T19:48:16.264Z,100769.60
2023-04-26T19:50:47.522Z,100770.00
2023-04-26T19:53:15.895Z,100769.40
2023-04-26T19:55:46.005Z,100767.00
2023-04-26T19:58:15.205Z,100769.20
2023-04-26T20:00:45.817Z,100769.80
2023-04-26T20:03:14.740Z,100768.20
2023-04-26T20:05:44.144Z,100767.60
2023-04-26T20:08:12.120Z,100771.60
2023-04-26T20:10:42.306Z,100769.60
2023-04-26T20:13:11.706Z,100771.60
2023-04-26T20:15:39.636Z,100774.20
2023-04-26T20:18:08.759Z,100774.80
2023-04-26T20:20:37.992Z,100775.20
2023-04-26T20:23:07.543Z,100771.60
2023-04-26T20:25:35.345Z,100778.00
2023-04-26T20:28:11.011Z,100775.80
2023-04-26T20:30:39.003Z,100772.00
2023-04-26T20:33:08.842Z,100777.80
2023-04-26T20:35:37.004Z,100781.40
2023-04-26T20:38:07.479Z,100781.60
2023-04-26T20:40:39.213Z,100780.00
2023-04-26T20:43:07.582Z,100781.40
2023-04-26T20:45:35.714Z,100785.60
2023-04-26T20:48:06.693Z,100790.20
2023-04-26T20:50:36.590Z,100785.40
2023-04-26T20:53:04.816Z,100785.20
2023-04-26T20:55:35.736Z,100784.20
2023-04-26T20:58:09.502Z,100785.20
2023-04-26T21:00:37.696Z,100786.20
2023-04-26T21:03:05.495Z,100789.20
2023-04-26T21:05:36.057Z,100793.00
2023-04-26T21:08:04.170Z,100790.40
2023-04-26T21:10:31.947Z,100788.40
2023-04-26T21:13:01.224Z,100793.40
2023-04-26T21:15:30.928Z,100793.00
2023-04-26T21:17:59.342Z,100791.80
2023-04-26T21:20:27.220Z,100787.20
2023-04-26T21:22:56.552Z,100787.60
2023-04-26T21:25:24.520Z,100788.60
2023-04-26T21:27:52.354Z,100788.20
2023-04-26T21:30:20.409Z,100788.40
2023-04-26T21:32:48.253Z,100789.80
2023-04-26T21:35:19.863Z,100784.40
2023-04-26T21:37:47.940Z,100785.60
2023-04-26T21:40:15.836Z,100783.40
2023-04-26T21:42:48.773Z,100782.00
2023-04-26T21:45:22.321Z,100780.60
2023-04-26T21:47:50.568Z,100784.00
2023-04-26T21:50:18.991Z,100776.20
2023-04-26T21:52:47.416Z,100775.80
2023-04-26T21:55:15.488Z,100776.80
2023-04-26T21:57:43.486Z,100778.40
2023-04-26T22:00:13.273Z,100784.60
2023-04-26T22:02:42.817Z,100787.40
2023-04-26T22:05:13.684Z,100789.20
2023-04-26T22:07:42.943Z,100791.20
2023-04-26T22:10:11.698Z,100791.00
2023-04-26T22:12:39.960Z,100794.00
2023-04-26T22:15:08.687Z,100795.80
2023-04-26T22:17:36.549Z,100798.00
2023-04-26T22:20:05.483Z,100799.40
2023-04-26T22:22:33.451Z,100800.80
2023-04-26T22:25:03.228Z,100802.00
2023-04-26T22:27:34.869Z,100806.00
2023-04-26T22:30:16.155Z,100805.80
2023-04-26T22:32:53.562Z,100808.20
2023-04-26T22:35:25.123Z,100807.40
2023-04-26T22:37:54.501Z,100807.60
2023-04-26T22:40:22.828Z,100809.60
2023-04-26T22:42:50.954Z,100811.80
2023-04-26T22:45:19.641Z,100812.60
2023-04-26T22:47:48.547Z,100813.20
2023-04-26T22:50:16.741Z,100813.40
2023-04-26T22:52:45.041Z,100818.00
2023-04-26T22:55:12.986Z,100821.80
2023-04-26T22:57:41.201Z,100820.20
2023-04-26T23:00:12.318Z,100824.00
2023-04-26T23:02:40.936Z,100819.00
2023-04-26T23:05:10.786Z,100819.40
2023-04-26T23:07:41.314Z,100819.80
2023-04-26T23:10:09.766Z,100822.60
2023-04-26T23:12:37.856Z,100825.40
2023-04-26T23:15:06.825Z,100824.00
2023-04-26T23:17:35.709Z,100822.40
2023-04-26T23:20:13.771Z,100819.60
2023-04-26T23:22:44.887Z,100814.40
2023-04-26T23:25:14.020Z,100815.40
2023-04-26T23:27:42.126Z,100816.80
2023-04-26T23:30:14.008Z,100815.00
2023-04-26T23:32:41.934Z,100811.60
2023-04-26T23:35:10.170Z,100814.00
2023-04-26T23:37:38.099Z,100811.00
2023-04-26T23:40:10.338Z,100811.60
2023-04-26T23:42:38.186Z,100808.80
2023-04-26T23:45:07.985Z,100810.60
2023-04-26T23:47:36.201Z,100813.60
2023-04-26T23:50:07.468Z,100812.00
2023-04-26T23:52:36.172Z,100808.60
2023-04-26T23:55:08.312Z,100814.80
2023-04-26T23:57:38.600Z,100814.00
